createdAt,value
2022-07-25T00:02:08.853Z,21.70
2022-07-25T00:07:11.135Z,21.70
2022-07-25T00:12:12.828Z,21.60
2022-07-25T00:17:14.706Z,21.60
2022-07-25T00:22:16.411Z,21.60
2022-07-25T00:27:18.252Z,21.50
2022-07-25T00:32:19.993Z,21.50
2022-07-25T00:37:21.723Z,21.40
2022-07-25T00:42:24.191Z,21.40
2022-07-25T00:47:26.249Z,21.40
2022-07-25T00:52:28.110Z,21.40
2022-07-25T00:57:29.957Z,21.40
2022-07-25T01:02:31.691Z,21.30
2022-07-25T01:07:33.720Z,21.30
2022-07-25T01:12:49.784Z,21.30
2022-07-25T01:17:52.052Z,21.30
2022-07-25T01:22:54.410Z,21.30
2022-07-25T01:27:56.322Z,21.30
2022-07-25T01:32:58.130Z,21.30
2022-07-25T01:37:59.805Z,21.30
2022-07-25T01:43:01.517Z,21.30
2022-07-25T01:48:03.450Z,21.30
2022-07-25T01:53:05.328Z,21.20
2022-07-25T01:58:07.428Z,21.20
2022-07-25T02:03:28.053Z,21.10
2022-07-25T02:08:31.109Z,21.10
2022-07-25T02:13:32.944Z,21.00
2022-07-25T02:18:34.711Z,21.00
2022-07-25T02:23:37.212Z,21.00
2022-07-25T02:28:39.646Z,20.90
2022-07-25T02:33:41.538Z,20.90
2022-07-25T02:38:43.379Z,20.80
2022-07-25T02:43:45.096Z,20.80
2022-07-25T02:48:46.931Z,20.70
2022-07-25T02:53:57.076Z,20.70
2022-07-25T02:59:00.122Z,20.70
2022-07-25T03:04:02.054Z,20.70
2022-07-25T03:09:04.551Z,20.60
2022-07-25T03:14:08.768Z,20.60
2022-07-25T03:19:12.742Z,20.50
2022-07-25T03:24:14.804Z,20.60
2022-07-25T03:29:16.538Z,20.50
2022-07-25T03:34:18.339Z,20.50
2022-07-25T03:39:20.732Z,20.40
2022-07-25T03:44:24.412Z,20.40
2022-07-25T03:49:26.118Z,20.40
2022-07-25T03:54:27.838Z,20.40
2022-07-25T03:59:29.550Z,20.40
2022-07-25T04:04:31.344Z,20.40
2022-07-25T04:09:33.671Z,20.50
2022-07-25T04:14:35.699Z,20.50
2022-07-25T04:19:37.444Z,20.50
2022-07-25T04:24:39.257Z,20.50
2022-07-25T04:29:40.982Z,20.50
2022-07-25T04:34:43.765Z,20.50
2022-07-25T04:39:45.593Z,20.50
2022-07-25T04:44:47.285Z,20.50
2022-07-25T04:49:49.249Z,20.60
2022-07-25T04:54:50.960Z,20.80
2022-07-25T04:59:52.675Z,20.80
2022-07-25T05:04:54.365Z,20.90
2022-07-25T05:09:56.214Z,21.00
2022-07-25T05:14:57.977Z,21.20
2022-07-25T05:19:59.741Z,21.30
2022-07-25T05:25:02.484Z,21.50
2022-07-25T05:30:05.912Z,21.70
2022-07-25T05:35:08.716Z,21.80
2022-07-25T05:40:10.649Z,22.00
2022-07-25T05:45:12.657Z,22.20
2022-07-25T05:50:14.369Z,22.40
2022-07-25T05:55:17.039Z,22.50
2022-07-25T06:00:18.980Z,22.70
2022-07-25T06:05:20.808Z,22.80
2022-07-25T06:10:22.600Z,23.10
2022-07-25T06:15:27.043Z,23.20
2022-07-25T06:20:29.505Z,23.30
2022-07-25T06:25:31.395Z,23.40
2022-07-25T06:30:33.528Z,23.50
2022-07-25T06:35:35.521Z,23.60
2022-07-25T06:40:37.295Z,23.70
2022-07-25T06:45:39.036Z,24.00
2022-07-25T06:50:40.843Z,24.10
2022-07-25T06:55:42.658Z,24.20
2022-07-25T07:00:44.485Z,24.30
2022-07-25T07:05:46.250Z,24.50
2022-07-25T07:10:47.999Z,24.70
2022-07-25T07:15:50.901Z,24.80
2022-07-25T07:20:53.548Z,25.00
2022-07-25T07:25:55.315Z,25.10
2022-07-25T07:36:19.535Z,25.50
2022-07-25T07:41:21.497Z,25.70
2022-07-25T07:46:23.298Z,25.90
2022-07-25T07:51:25.002Z,26.10
2022-07-25T07:56:26.724Z,26.30
2022-07-25T08:01:28.520Z,26.40
2022-07-25T08:06:30.288Z,26.70
2022-07-25T08:11:32.085Z,26.90
2022-07-25T08:16:34.331Z,27.20
2022-07-25T08:21:36.167Z,27.40
2022-07-25T08:26:37.966Z,27.70
2022-07-25T08:31:39.708Z,27.80
2022-07-25T08:36:41.459Z,27.90
2022-07-25T08:41:43.624Z,28.20
2022-07-25T08:46:46.161Z,28.40
2022-07-25T08:51:51.786Z,28.70
2022-07-25T08:56:54.357Z,28.70
2022-07-25T09:01:56.109Z,28.80
2022-07-25T09:06:57.855Z,29.00
2022-07-25T09:12:00.041Z,29.30
2022-07-25T09:17:06.637Z,29.50
2022-07-25T09:22:24.605Z,29.60
2022-07-25T09:27:26.365Z,29.70
2022-07-25T09:32:29.184Z,29.80
2022-07-25T09:37:30.862Z,29.90
2022-07-25T09:42:33.047Z,30.00
2022-07-25T09:47:37.029Z,30.20
2022-07-25T09:52:39.243Z,30.30
2022-07-25T09:57:41.416Z,30.40
2022-07-25T10:02:55.275Z,30.50
2022-07-25T10:07:57.378Z,30.60
2022-07-25T10:13:29.358Z,30.80
2022-07-25T10:18:31.564Z,30.90
2022-07-25T10:23:33.318Z,31.00
2022-07-25T10:28:41.645Z,31.00
2022-07-25T10:33:43.454Z,31.10
2022-07-25T10:38:46.349Z,31.20
2022-07-25T10:43:50.868Z,31.30
2022-07-25T10:49:03.851Z,31.20
2022-07-25T10:54:16.592Z,31.40
2022-07-25T10:59:36.266Z,31.70
2022-07-25T11:04:38.030Z,31.70
2022-07-25T11:09:41.611Z,31.70
2022-07-25T11:14:43.496Z,31.90
2022-07-25T11:19:55.206Z,32.30
2022-07-25T11:24:57.856Z,32.30
2022-07-25T11:30:14.826Z,32.10
2022-07-25T11:35:21.842Z,32.20
2022-07-25T11:40:23.894Z,32.40
2022-07-25T11:45:28.428Z,32.40
2022-07-25T11:50:31.792Z,32.40
2022-07-25T11:55:40.801Z,32.60
2022-07-25T12:00:48.790Z,32.70
2022-07-25T12:05:50.764Z,32.80
2022-07-25T12:10:52.480Z,32.80
2022-07-25T12:15:56.289Z,32.90
2022-07-25T12:20:58.031Z,33.00
2022-07-25T12:25:59.858Z,33.20
2022-07-25T12:31:01.663Z,33.30
2022-07-25T12:36:08.300Z,33.40
2022-07-25T12:41:13.465Z,33.70
2022-07-25T12:46:17.889Z,33.90
2022-07-25T12:51:20.408Z,34.00
2022-07-25T12:56:22.210Z,34.30
2022-07-25T13:01:23.944Z,34.70
2022-07-25T13:06:25.801Z,35.40
2022-07-25T13:11:27.615Z,35.80
2022-07-25T13:16:29.431Z,36.20
2022-07-25T13:21:31.328Z,36.90
2022-07-25T13:26:33.447Z,37.50
2022-07-25T13:31:36.031Z,37.80
2022-07-25T13:36:38.857Z,37.60
2022-07-25T13:41:40.790Z,37.40
2022-07-25T13:46:46.078Z,37.30
2022-07-25T13:51:48.107Z,37.40
2022-07-25T13:56:49.886Z,37.50
2022-07-25T14:01:51.625Z,37.40
2022-07-25T14:06:53.710Z,37.30
2022-07-25T14:11:55.484Z,37.20
2022-07-25T14:16:58.112Z,37.20
2022-07-25T14:21:59.867Z,37.30
2022-07-25T14:27:02.490Z,37.60
2022-07-25T14:32:08.306Z,37.80
2022-07-25T14:37:10.174Z,37.80
2022-07-25T14:42:12.099Z,38.10
2022-07-25T14:47:13.964Z,38.10
2022-07-25T14:52:16.455Z,37.60
2022-07-25T14:57:18.694Z,36.70
2022-07-25T15:02:20.510Z,36.30
2022-07-25T15:07:22.310Z,36.20
2022-07-25T15:12:24.013Z,36.20
2022-07-25T15:17:25.882Z,36.10
2022-07-25T15:22:27.654Z,36.10
2022-07-25T15:27:29.495Z,36.10
2022-07-25T15:32:31.199Z,36.10
2022-07-25T15:37:33.015Z,36.10
2022-07-25T15:42:35.168Z,36.70
2022-07-25T15:47:38.507Z,36.70
2022-07-25T15:52:40.176Z,36.80
2022-07-25T15:57:42.007Z,37.30
2022-07-25T16:02:44.963Z,37.80
2022-07-25T16:07:46.753Z,36.90
2022-07-25T16:12:49.007Z,36.00
2022-07-25T16:17:52.992Z,35.40
2022-07-25T16:22:56.028Z,34.90
2022-07-25T16:27:58.448Z,34.40
2022-07-25T16:33:00.160Z,32.40
2022-07-25T16:38:02.002Z,23.40
2022-07-25T16:43:06.811Z,22.70
2022-07-25T16:48:09.101Z,22.30
2022-07-25T16:53:10.873Z,22.60
2022-07-25T16:58:12.682Z,22.40
2022-07-25T17:03:16.064Z,22.60
2022-07-25T17:08:18.188Z,22.60
2022-07-25T17:13:20.158Z,22.80
2022-07-25T17:18:21.990Z,22.90
2022-07-25T17:23:23.919Z,23.10
2022-07-25T17:28:25.732Z,23.40
2022-07-25T17:33:28.036Z,23.70
2022-07-25T17:38:34.656Z,23.60
2022-07-25T17:43:36.986Z,23.70
2022-07-25T17:48:39.335Z,23.80
2022-07-25T17:53:41.193Z,23.60
2022-07-25T17:58:42.990Z,23.50
2022-07-25T18:03:47.611Z,23.70
2022-07-25T18:08:49.324Z,23.70
2022-07-25T18:13:51.124Z,24.10
2022-07-25T18:18:52.865Z,24.00
2022-07-25T18:23:54.625Z,23.70
2022-07-25T18:28:56.364Z,23.80
2022-07-25T18:33:58.082Z,24.30
2022-07-25T18:39:00.264Z,24.20
2022-07-25T18:44:01.977Z,24.00
2022-07-25T18:49:03.996Z,23.90
2022-07-25T18:54:06.401Z,24.00
2022-07-25T18:59:08.740Z,24.10
2022-07-25T19:04:11.507Z,24.00
2022-07-25T19:09:13.493Z,24.10
2022-07-25T19:14:15.278Z,24.00
2022-07-25T19:19:17.929Z,24.00
2022-07-25T19:24:19.749Z,24.00
2022-07-25T19:29:21.532Z,24.10
2022-07-25T19:34:23.900Z,24.20
2022-07-25T19:39:25.632Z,24.10
2022-07-25T19:44:27.356Z,24.10
2022-07-25T19:49:29.161Z,24.20
2022-07-25T19:54:30.966Z,24.20
2022-07-25T19:59:32.924Z,24.30
2022-07-25T20:04:34.805Z,24.20
2022-07-25T20:09:36.649Z,24.20
2022-07-25T20:14:38.555Z,24.20
2022-07-25T20:19:40.571Z,24.30
2022-07-25T20:24:42.344Z,23.90
2022-07-25T20:29:44.251Z,23.80
2022-07-25T20:34:46.062Z,23.60
2022-07-25T20:39:48.312Z,23.60
2022-07-25T20:44:50.877Z,23.50
2022-07-25T20:49:52.662Z,23.30
2022-07-25T20:54:54.594Z,22.80
2022-07-25T20:59:56.335Z,23.00
2022-07-25T21:04:58.142Z,23.20
2022-07-25T21:09:59.987Z,23.20
2022-07-25T21:15:01.857Z,23.10
2022-07-25T21:20:05.155Z,23.00
2022-07-25T21:25:08.013Z,23.00
2022-07-25T21:30:10.990Z,22.90
2022-07-25T21:35:12.712Z,22.70
2022-07-25T21:40:14.712Z,22.60
2022-07-25T21:45:16.589Z,22.60
2022-07-25T21:50:36.874Z,22.50
2022-07-25T21:55:45.582Z,22.50
2022-07-25T22:00:47.360Z,22.30
2022-07-25T22:05:49.108Z,22.30
2022-07-25T22:10:51.061Z,22.40
2022-07-25T22:15:53.802Z,22.40
2022-07-25T22:20:55.979Z,22.40
2022-07-25T22:25:57.690Z,22.40
2022-07-25T22:30:59.454Z,22.50
2022-07-25T22:36:01.699Z,22.30
2022-07-25T22:41:03.582Z,22.20
2022-07-25T22:46:05.329Z,22.00
2022-07-25T22:51:07.084Z,21.80
2022-07-25T22:56:09.070Z,21.70
2022-07-25T23:01:10.958Z,21.70
2022-07-25T23:06:12.945Z,21.70
2022-07-25T23:11:14.764Z,21.60
2022-07-25T23:16:16.641Z,21.60
2022-07-25T23:21:18.408Z,21.60
2022-07-25T23:26:20.130Z,21.50
2022-07-25T23:31:21.957Z,21.50
2022-07-25T23:36:23.716Z,21.40
2022-07-25T23:41:25.469Z,21.50
2022-07-25T23:46:30.842Z,21.60
2022-07-25T23:51:33.230Z,21.50
2022-07-25T23:56:34.913Z,21.40
